createdAt,value
2018-07-11T00:00:29.421Z,0
2018-07-11T00:01:29.361Z,0
2018-07-11T00:02:29.074Z,0
2018-07-11T00:03:28.808Z,0
2018-07-11T00:04:29.369Z,0
2018-07-11T00:05:29.049Z,0
2018-07-11T00:06:29.035Z,0
2018-07-11T00:07:29.082Z,0
2018-07-11T00:08:29.294Z,0
2018-07-11T00:09:28.768Z,0
2018-07-11T00:10:29.326Z,0
2018-07-11T00:11:29.274Z,0
2018-07-11T00:12:29.309Z,0
2018-07-11T00:13:29.266Z,0
2018-07-11T00:14:28.974Z,0
2018-07-11T00:15:29.262Z,0
2018-07-11T00:16:29.214Z,0
2018-07-11T00:17:28.957Z,0
2018-07-11T00:18:28.424Z,0
2018-07-11T00:19:29.193Z,0
2018-07-11T00:20:28.915Z,0
2018-07-11T00:21:29.166Z,0
2018-07-11T00:22:28.646Z,0
2018-07-11T00:23:28.638Z,0
2018-07-11T00:24:29.172Z,0
2018-07-11T00:25:29.182Z,0
2018-07-11T00:26:28.869Z,0
2018-07-11T00:27:28.859Z,0
2018-07-11T00:28:28.844Z,0
2018-07-11T00:29:28.327Z,0
2018-07-11T00:30:29.086Z,0
2018-07-11T00:31:28.820Z,0
2018-07-11T00:32:29.078Z,0
2018-07-11T00:33:28.806Z,0
2018-07-11T00:34:29.051Z,0
2018-07-11T00:35:29.056Z,0
2018-07-11T00:36:29.033Z,0
2018-07-11T00:37:29.049Z,0
2018-07-11T00:38:28.762Z,0
2018-07-11T00:39:29.002Z,0
2018-07-11T00:40:29.005Z,0
2018-07-11T00:41:28.732Z,0
2018-07-11T00:42:28.982Z,0
2018-07-11T00:43:28.718Z,0
2018-07-11T00:44:28.511Z,0
2018-07-11T00:45:28.972Z,0
2018-07-11T00:46:28.953Z,0
2018-07-11T00:47:28.934Z,0
2018-07-11T00:48:28.930Z,0
2018-07-11T00:49:28.411Z,0
2018-07-11T00:50:28.906Z,0
2018-07-11T00:51:28.643Z,0
2018-07-11T00:52:28.889Z,0
2018-07-11T00:53:28.902Z,0
2018-07-11T00:54:28.401Z,0
2018-07-11T00:55:28.372Z,0
2018-07-11T00:56:28.905Z,0
2018-07-11T00:57:28.664Z,0
2018-07-11T00:58:28.840Z,0
2018-07-11T00:59:28.914Z,0
2018-07-11T01:00:28.919Z,0
2018-07-11T01:01:28.892Z,0
2018-07-11T01:02:28.602Z,0
2018-07-11T01:03:28.569Z,0
2018-07-11T01:04:28.796Z,0
2018-07-11T01:05:28.526Z,0
2018-07-11T01:06:28.783Z,0
2018-07-11T01:07:28.837Z,0
2018-07-11T01:08:28.597Z,0
2018-07-11T01:09:28.552Z,0
2018-07-11T01:10:28.772Z,0
2018-07-11T01:11:28.476Z,0
2018-07-11T01:12:28.509Z,0
2018-07-11T01:13:28.755Z,0
2018-07-11T01:14:28.737Z,0
2018-07-11T01:15:28.723Z,0
2018-07-11T01:16:28.698Z,0
2018-07-11T01:17:28.699Z,0
2018-07-11T01:18:28.702Z,0
2018-07-11T01:19:28.697Z,0
2018-07-11T01:20:28.639Z,0
2018-07-11T01:21:28.375Z,0
2018-07-11T01:22:28.108Z,0
2018-07-11T01:23:28.392Z,0
2018-07-11T01:24:27.819Z,0
2018-07-11T01:25:28.347Z,0
2018-07-11T01:26:28.598Z,0
2018-07-11T01:27:28.359Z,0
2018-07-11T01:28:28.369Z,0
2018-07-11T01:29:28.554Z,0
2018-07-11T01:30:28.348Z,0
2018-07-11T01:31:28.083Z,0
2018-07-11T01:32:28.289Z,0
2018-07-11T01:33:28.278Z,0
2018-07-11T01:34:28.048Z,0
2018-07-11T01:35:28.550Z,0
2018-07-11T01:36:28.532Z,0
2018-07-11T01:37:28.565Z,0
2018-07-11T01:38:28.251Z,0
2018-07-11T01:39:28.278Z,0
2018-07-11T01:40:28.200Z,0
2018-07-11T01:41:28.201Z,0
2018-07-11T01:42:27.906Z,0
2018-07-11T01:43:28.193Z,0
2018-07-11T01:44:27.886Z,0
2018-07-11T01:45:28.482Z,0
2018-07-11T01:46:28.182Z,0
2018-07-11T01:47:28.387Z,0
2018-07-11T01:48:28.398Z,0
2018-07-11T01:49:28.095Z,0
2018-07-11T01:50:27.828Z,0
2018-07-11T01:51:28.328Z,0
2018-07-11T01:52:27.804Z,0
2018-07-11T01:53:28.330Z,0
2018-07-11T01:54:28.045Z,0
2018-07-11T01:55:28.341Z,0
2018-07-11T01:56:28.291Z,0
2018-07-11T01:57:28.293Z,0
2018-07-11T01:58:28.015Z,0
2018-07-11T01:59:27.994Z,0
2018-07-11T02:00:28.001Z,0
2018-07-11T02:01:28.278Z,0
2018-07-11T02:02:28.244Z,0
2018-07-11T02:03:28.259Z,0
2018-07-11T02:04:28.210Z,0
2018-07-11T02:05:28.209Z,0
2018-07-11T02:06:28.200Z,0
2018-07-11T02:07:27.925Z,0
2018-07-11T02:08:27.925Z,0
2018-07-11T02:09:27.912Z,0
2018-07-11T02:10:27.641Z,0
2018-07-11T02:11:28.152Z,0
2018-07-11T02:12:27.630Z,0
2018-07-11T02:13:28.139Z,0
2018-07-11T02:14:27.864Z,0
2018-07-11T02:15:28.116Z,0
2018-07-11T02:16:28.096Z,0
2018-07-11T02:17:28.096Z,0
2018-07-11T02:18:28.100Z,0
2018-07-11T02:19:28.137Z,0
2018-07-11T02:20:28.084Z,0
2018-07-11T02:21:28.080Z,0
2018-07-11T02:22:27.801Z,0
2018-07-11T02:23:28.063Z,0
2018-07-11T02:24:27.790Z,0
2018-07-11T02:25:27.762Z,0
2018-07-11T02:26:27.609Z,0
2018-07-11T02:27:27.835Z,0
2018-07-11T02:28:27.750Z,0
2018-07-11T02:29:27.737Z,0
2018-07-11T02:30:27.782Z,0
2018-07-11T02:31:27.805Z,0
2018-07-11T02:32:27.536Z,0
2018-07-11T02:33:28.049Z,0
2018-07-11T02:34:27.773Z,0
2018-07-11T02:35:27.984Z,0
2018-07-11T02:36:27.492Z,0
2018-07-11T02:37:27.428Z,0
2018-07-11T02:38:27.411Z,0
2018-07-11T02:39:27.910Z,0
2018-07-11T02:40:27.933Z,0
2018-07-11T02:41:27.624Z,0
2018-07-11T02:42:27.877Z,0
2018-07-11T02:43:27.648Z,0
2018-07-11T02:44:27.612Z,0
2018-07-11T02:45:27.856Z,0
2018-07-11T02:46:27.581Z,0
2018-07-11T02:47:27.578Z,0
2018-07-11T02:48:27.571Z,0
2018-07-11T02:49:27.812Z,0
2018-07-11T02:50:27.816Z,0
2018-07-11T02:51:27.798Z,0
2018-07-11T02:52:27.790Z,0
2018-07-11T02:53:27.780Z,0
2018-07-11T02:54:27.540Z,0
2018-07-11T02:55:27.526Z,0
2018-07-11T02:56:27.750Z,0
2018-07-11T02:57:27.495Z,0
2018-07-11T02:58:27.491Z,0
2018-07-11T02:59:27.211Z,0
2018-07-11T03:00:27.467Z,0
2018-07-11T03:01:27.515Z,0
2018-07-11T03:02:27.436Z,0
2018-07-11T03:03:27.442Z,0
2018-07-11T03:04:27.687Z,0
2018-07-11T03:05:27.425Z,0
2018-07-11T03:06:27.675Z,0
2018-07-11T03:07:27.651Z,0
2018-07-11T03:08:27.666Z,0
2018-07-11T03:09:27.398Z,0
2018-07-11T03:10:27.371Z,0
2018-07-11T03:11:27.377Z,0
2018-07-11T03:12:27.612Z,0
2018-07-11T03:13:27.611Z,0
2018-07-11T03:14:27.612Z,0
2018-07-11T03:15:27.073Z,0
2018-07-11T03:16:27.585Z,0
2018-07-11T03:17:27.575Z,0
2018-07-11T03:18:27.568Z,0
2018-07-11T03:19:27.290Z,0
2018-07-11T03:20:27.542Z,0
2018-07-11T03:21:27.545Z,5
2018-07-11T03:22:27.531Z,5
2018-07-11T03:23:27.270Z,5
2018-07-11T03:24:27.513Z,5
2018-07-11T03:25:27.500Z,5
2018-07-11T03:26:27.497Z,5
2018-07-11T03:27:27.502Z,5
2018-07-11T03:28:27.216Z,5
2018-07-11T03:29:26.951Z,5
2018-07-11T03:30:27.252Z,5
2018-07-11T03:31:27.226Z,5
2018-07-11T03:32:27.332Z,5
2018-07-11T03:33:27.175Z,10
2018-07-11T03:34:27.173Z,10
2018-07-11T03:35:27.166Z,10
2018-07-11T03:36:27.154Z,10
2018-07-11T03:37:26.880Z,10
2018-07-11T03:38:27.397Z,10
2018-07-11T03:39:27.118Z,10
2018-07-11T03:40:27.385Z,10
2018-07-11T03:41:27.366Z,15
2018-07-11T03:42:26.831Z,15
2018-07-11T03:43:27.341Z,15
2018-07-11T03:44:27.077Z,15
2018-07-11T03:45:26.810Z,15
2018-07-11T03:46:27.317Z,15
2018-07-11T03:47:27.330Z,20
2018-07-11T03:48:27.303Z,20
2018-07-11T03:49:27.037Z,20
2018-07-11T03:50:26.771Z,20
2018-07-11T03:51:27.271Z,20
2018-07-11T03:52:27.001Z,25
2018-07-11T03:53:27.265Z,25
2018-07-11T03:54:26.998Z,25
2018-07-11T03:55:26.983Z,25
2018-07-11T03:56:26.716Z,30
2018-07-11T03:57:26.970Z,30
2018-07-11T03:58:27.224Z,30
2018-07-11T03:59:26.966Z,30
2018-07-11T04:00:26.985Z,30
2018-07-11T04:01:26.937Z,35
2018-07-11T04:02:26.918Z,35
2018-07-11T04:03:26.654Z,35
2018-07-11T04:04:27.169Z,40
2018-07-11T04:05:26.905Z,40
2018-07-11T04:06:26.636Z,45
2018-07-11T04:07:27.137Z,50
2018-07-11T04:08:26.619Z,50
2018-07-11T04:09:27.124Z,50
2018-07-11T04:10:27.104Z,55
2018-07-11T04:11:26.896Z,60
2018-07-11T04:12:26.839Z,65
2018-07-11T04:13:27.080Z,65
2018-07-11T04:14:27.072Z,65
2018-07-11T04:15:26.550Z,70
2018-07-11T04:16:27.058Z,70
2018-07-11T04:17:27.046Z,70
2018-07-11T04:18:26.788Z,70
2018-07-11T04:19:26.796Z,70
2018-07-11T04:20:27.043Z,70
2018-07-11T04:21:26.759Z,75
2018-07-11T04:22:26.755Z,75
2018-07-11T04:23:26.997Z,75
2018-07-11T04:24:26.999Z,75
2018-07-11T04:25:26.726Z,75
2018-07-11T04:26:26.992Z,75
2018-07-11T04:27:26.796Z,75
2018-07-11T04:28:26.962Z,75
2018-07-11T04:29:26.704Z,75
2018-07-11T04:30:26.952Z,75
2018-07-11T04:31:26.999Z,75
2018-07-11T04:32:26.932Z,80
2018-07-11T04:33:27.018Z,80
2018-07-11T04:34:26.658Z,85
2018-07-11T04:35:26.901Z,85
2018-07-11T04:36:26.636Z,90
2018-07-11T04:37:26.884Z,95
2018-07-11T04:38:26.881Z,95
2018-07-11T04:39:26.887Z,100
2018-07-11T04:40:26.874Z,100
2018-07-11T04:41:26.857Z,105
2018-07-11T04:42:26.905Z,110
2018-07-11T04:43:26.591Z,110
2018-07-11T04:44:26.579Z,110
2018-07-11T04:45:26.574Z,105
2018-07-11T04:46:26.816Z,105
2018-07-11T04:47:26.811Z,100
2018-07-11T04:48:26.805Z,100
2018-07-11T04:49:26.288Z,105
2018-07-11T04:50:26.280Z,110
2018-07-11T04:51:26.791Z,120
2018-07-11T04:52:26.775Z,125
2018-07-11T04:53:26.787Z,120
2018-07-11T04:54:26.758Z,110
2018-07-11T04:55:26.761Z,105
2018-07-11T04:56:26.504Z,100
2018-07-11T04:57:26.224Z,100
2018-07-11T04:58:26.481Z,100
2018-07-11T04:59:26.727Z,95
2018-07-11T05:00:26.720Z,95
2018-07-11T05:01:26.713Z,90
2018-07-11T05:02:26.715Z,90
2018-07-11T05:03:26.440Z,90
2018-07-11T05:04:26.173Z,95
2018-07-11T05:05:26.681Z,95
2018-07-11T05:06:26.420Z,95
2018-07-11T05:07:26.413Z,95
2018-07-11T05:08:25.898Z,100
2018-07-11T05:09:26.135Z,105
2018-07-11T05:10:26.388Z,110
2018-07-11T05:11:26.131Z,110
2018-07-11T05:12:26.115Z,115
2018-07-11T05:13:26.110Z,120
2018-07-11T05:14:26.615Z,125
2018-07-11T05:15:25.842Z,130
2018-07-11T05:16:26.844Z,135
2018-07-11T05:17:26.604Z,140
2018-07-11T05:18:26.595Z,140
2018-07-11T05:19:26.069Z,140
2018-07-11T05:20:26.579Z,140
2018-07-11T05:21:26.566Z,140
2018-07-11T05:22:26.553Z,140
2018-07-11T05:23:26.552Z,135
2018-07-11T05:24:26.549Z,135
2018-07-11T05:25:26.546Z,135
2018-07-11T05:26:26.278Z,135
2018-07-11T05:27:26.018Z,135
2018-07-11T05:28:26.277Z,130
2018-07-11T05:29:26.515Z,130
2018-07-11T05:30:25.989Z,125
2018-07-11T05:31:26.243Z,125
2018-07-11T05:32:26.228Z,125
2018-07-11T05:33:26.227Z,125
2018-07-11T05:34:26.223Z,120
2018-07-11T05:35:26.212Z,120
2018-07-11T05:36:26.769Z,115
2018-07-11T05:37:26.204Z,115
2018-07-11T05:38:25.934Z,115
2018-07-11T05:39:26.439Z,110
2018-07-11T05:40:25.921Z,110
2018-07-11T05:41:25.915Z,110
2018-07-11T05:42:26.280Z,105
2018-07-11T05:43:26.415Z,100
2018-07-11T05:44:26.413Z,100
2018-07-11T05:45:26.145Z,95
2018-07-11T05:46:26.407Z,90
2018-07-11T05:47:26.389Z,90
2018-07-11T05:48:26.269Z,85
2018-07-11T05:49:26.129Z,80
2018-07-11T05:50:25.598Z,80
2018-07-11T05:51:26.106Z,75
2018-07-11T05:52:26.360Z,75
2018-07-11T05:53:26.092Z,75
2018-07-11T05:54:26.086Z,75
2018-07-11T05:55:26.332Z,75
2018-07-11T05:56:26.329Z,75
2018-07-11T05:57:26.068Z,75
2018-07-11T05:58:26.323Z,80
2018-07-11T05:59:26.055Z,80
2018-07-11T06:00:26.049Z,85
2018-07-11T06:01:26.035Z,85
2018-07-11T06:02:25.766Z,85
2018-07-11T06:03:26.030Z,90
2018-07-11T06:04:25.761Z,90
2018-07-11T06:05:26.431Z,90
2018-07-11T06:06:26.002Z,95
2018-07-11T06:07:26.002Z,95
2018-07-11T06:08:26.000Z,95
2018-07-11T06:09:25.995Z,100
2018-07-11T06:10:26.237Z,100
2018-07-11T06:11:25.716Z,100
2018-07-11T06:12:25.962Z,95
2018-07-11T06:13:26.768Z,95
2018-07-11T06:14:25.951Z,100
2018-07-11T06:15:26.204Z,100
2018-07-11T06:16:26.026Z,100
2018-07-11T06:17:25.677Z,100
2018-07-11T06:18:25.927Z,100
2018-07-11T06:19:25.914Z,105
2018-07-11T06:20:26.192Z,105
2018-07-11T06:21:25.907Z,110
2018-07-11T06:22:25.639Z,110
2018-07-11T06:23:26.153Z,115
2018-07-11T06:24:25.624Z,115
2018-07-11T06:25:26.133Z,120
2018-07-11T06:26:25.877Z,120
2018-07-11T06:27:26.189Z,125
2018-07-11T06:28:26.121Z,125
2018-07-11T06:29:26.108Z,130
2018-07-11T06:30:26.107Z,130
2018-07-11T06:31:26.105Z,130
2018-07-11T06:32:25.843Z,130
2018-07-11T06:33:26.180Z,135
2018-07-11T06:34:25.842Z,135
2018-07-11T06:35:26.087Z,135
2018-07-11T06:36:25.833Z,135
2018-07-11T06:37:25.810Z,135
2018-07-11T06:38:26.049Z,140
2018-07-11T06:39:25.438Z,145
2018-07-11T06:40:25.519Z,155
2018-07-11T06:41:26.037Z,160
2018-07-11T06:42:25.768Z,170
2018-07-11T06:43:25.762Z,175
2018-07-11T06:44:25.574Z,180
2018-07-11T06:45:26.012Z,185
2018-07-11T06:46:26.005Z,195
2018-07-11T06:47:25.747Z,200
2018-07-11T06:48:25.996Z,200
2018-07-11T06:49:25.986Z,210
2018-07-11T06:50:25.984Z,220
2018-07-11T06:51:25.971Z,235
2018-07-11T06:52:25.705Z,245
2018-07-11T06:53:25.971Z,260
2018-07-11T06:54:25.952Z,270
2018-07-11T06:55:25.694Z,290
2018-07-11T06:56:25.949Z,305
2018-07-11T06:57:25.960Z,320
2018-07-11T06:58:25.939Z,330
2018-07-11T06:59:25.409Z,340
2018-07-11T07:00:25.920Z,355
2018-07-11T07:01:25.912Z,365
2018-07-11T07:02:25.650Z,380
2018-07-11T07:03:25.421Z,385
2018-07-11T07:04:25.380Z,395
2018-07-11T07:05:25.901Z,405
2018-07-11T07:06:25.893Z,430
2018-07-11T07:07:25.873Z,465
2018-07-11T07:08:25.615Z,460
2018-07-11T07:09:25.871Z,425
2018-07-11T07:10:25.349Z,430
2018-07-11T07:11:25.617Z,425
2018-07-11T07:12:25.595Z,430
2018-07-11T07:13:25.848Z,440
2018-07-11T07:14:25.329Z,460
2018-07-11T07:15:25.073Z,455
2018-07-11T07:16:25.615Z,450
2018-07-11T07:17:25.580Z,455
2018-07-11T07:18:25.568Z,455
2018-07-11T07:19:25.868Z,470
2018-07-11T07:20:25.562Z,495
2018-07-11T07:21:25.821Z,545
2018-07-11T07:22:25.896Z,655
2018-07-11T07:23:25.559Z,635
2018-07-11T07:24:25.804Z,595
2018-07-11T07:25:25.292Z,565
2018-07-11T07:26:25.802Z,550
2018-07-11T07:27:25.793Z,540
2018-07-11T07:28:25.787Z,580
2018-07-11T07:29:25.530Z,605
2018-07-11T07:30:25.018Z,570
2018-07-11T07:31:25.528Z,595
2018-07-11T07:32:25.009Z,580
2018-07-11T07:33:25.776Z,610
2018-07-11T07:34:25.831Z,645
2018-07-11T07:35:25.526Z,665
2018-07-11T07:36:25.265Z,650
2018-07-11T07:37:25.516Z,625
2018-07-11T07:38:25.509Z,590
2018-07-11T07:39:25.512Z,545
2018-07-11T07:40:25.771Z,450
2018-07-11T07:41:25.256Z,435
2018-07-11T07:42:25.769Z,435
2018-07-11T07:43:25.510Z,425
2018-07-11T07:44:25.514Z,420
2018-07-11T07:45:25.769Z,415
2018-07-11T07:46:25.250Z,410
2018-07-11T07:47:25.507Z,410
2018-07-11T07:48:25.501Z,400
2018-07-11T07:49:25.764Z,395
2018-07-11T07:50:25.502Z,390
2018-07-11T07:51:25.497Z,380
2018-07-11T07:52:25.754Z,375
2018-07-11T07:53:25.494Z,370
2018-07-11T07:54:25.236Z,370
2018-07-11T07:55:25.501Z,370
2018-07-11T07:56:25.489Z,370
2018-07-11T07:57:25.755Z,365
2018-07-11T07:58:25.744Z,370
2018-07-11T07:59:25.218Z,365
2018-07-11T08:00:25.067Z,360
2018-07-11T08:01:25.745Z,360
2018-07-11T08:02:25.734Z,365
2018-07-11T08:03:25.220Z,370
2018-07-11T08:04:24.958Z,370
2018-07-11T08:05:25.214Z,370
2018-07-11T08:06:25.724Z,375
2018-07-11T08:07:25.468Z,385
2018-07-11T08:08:25.729Z,395
2018-07-11T08:09:25.720Z,405
2018-07-11T08:10:25.465Z,405
2018-07-11T08:11:25.203Z,410
2018-07-11T08:12:25.457Z,415
2018-07-11T08:13:25.718Z,420
2018-07-11T08:14:25.192Z,430
2018-07-11T08:15:25.452Z,440
2018-07-11T08:16:25.709Z,450
2018-07-11T08:17:25.439Z,455
2018-07-11T08:18:25.442Z,465
2018-07-11T08:19:25.515Z,475
2018-07-11T08:20:25.696Z,480
2018-07-11T08:21:25.548Z,485
2018-07-11T08:22:25.693Z,485
2018-07-11T08:23:25.434Z,490
2018-07-11T08:24:25.428Z,495
2018-07-11T08:25:25.168Z,495
2018-07-11T08:26:25.683Z,500
2018-07-11T08:27:25.631Z,505
2018-07-11T08:28:25.157Z,505
2018-07-11T08:29:25.424Z,510
2018-07-11T08:30:25.673Z,510
2018-07-11T08:31:25.414Z,510
2018-07-11T08:32:25.150Z,510
2018-07-11T08:33:25.410Z,510
2018-07-11T08:34:25.147Z,510
2018-07-11T08:35:25.146Z,510
2018-07-11T08:36:25.139Z,510
2018-07-11T08:37:24.627Z,510
2018-07-11T08:38:25.394Z,515
2018-07-11T08:39:25.416Z,510
2018-07-11T08:40:25.391Z,510
2018-07-11T08:41:25.127Z,510
2018-07-11T08:42:25.647Z,510
2018-07-11T08:43:25.391Z,515
2018-07-11T08:44:25.647Z,510
2018-07-11T08:45:25.380Z,505
2018-07-11T08:46:25.636Z,505
2018-07-11T08:47:25.119Z,505
2018-07-11T08:48:26.207Z,505
2018-07-11T08:49:25.117Z,505
2018-07-11T08:50:25.112Z,505
2018-07-11T08:51:25.623Z,505
2018-07-11T08:52:25.622Z,505
2018-07-11T08:53:25.106Z,505
2018-07-11T08:54:25.103Z,505
2018-07-11T08:55:25.368Z,505
2018-07-11T08:56:25.364Z,505
2018-07-11T08:57:25.613Z,505
2018-07-11T08:58:25.619Z,510
2018-07-11T08:59:25.361Z,500
2018-07-11T09:00:25.611Z,500
2018-07-11T09:01:25.094Z,500
2018-07-11T09:02:25.361Z,500
2018-07-11T09:03:25.349Z,495
2018-07-11T09:04:25.606Z,495
2018-07-11T09:05:25.610Z,500
2018-07-11T09:06:25.343Z,500
2018-07-11T09:07:25.345Z,500
2018-07-11T09:08:25.085Z,500
2018-07-11T09:09:25.601Z,500
2018-07-11T09:10:25.648Z,500
2018-07-11T09:11:25.587Z,505
2018-07-11T09:12:25.074Z,505
2018-07-11T09:13:25.330Z,505
2018-07-11T09:14:24.821Z,510
2018-07-11T09:15:25.073Z,510
2018-07-11T09:16:25.587Z,510
2018-07-11T09:17:25.330Z,505
2018-07-11T09:18:25.575Z,505
2018-07-11T09:19:25.321Z,495
2018-07-11T09:20:25.318Z,475
2018-07-11T09:21:25.315Z,455
2018-07-11T09:22:25.095Z,440
2018-07-11T09:23:25.578Z,415
2018-07-11T09:24:25.638Z,385
2018-07-11T09:25:25.317Z,370
2018-07-11T09:26:25.317Z,365
2018-07-11T09:27:25.567Z,360
2018-07-11T09:28:25.568Z,360
2018-07-11T09:29:25.563Z,350
2018-07-11T09:30:25.620Z,345
2018-07-11T09:31:25.558Z,350
2018-07-11T09:32:25.315Z,360
2018-07-11T09:33:25.314Z,370
2018-07-11T09:34:25.297Z,375
2018-07-11T09:35:25.290Z,380
2018-07-11T09:36:25.542Z,395
2018-07-11T09:37:25.543Z,410
2018-07-11T09:38:25.538Z,415
2018-07-11T09:39:25.541Z,425
2018-07-11T09:40:25.538Z,440
2018-07-11T09:41:25.280Z,455
2018-07-11T09:42:25.531Z,470
2018-07-11T09:43:25.017Z,490
2018-07-11T09:44:25.012Z,505
2018-07-11T09:45:25.544Z,510
2018-07-11T09:46:25.525Z,510
2018-07-11T09:47:25.268Z,505
2018-07-11T09:48:25.261Z,505
2018-07-11T09:49:25.010Z,505
2018-07-11T09:50:25.262Z,505
2018-07-11T09:51:25.263Z,510
2018-07-11T09:52:25.967Z,510
2018-07-11T09:53:25.264Z,510
2018-07-11T09:54:25.244Z,510
2018-07-11T09:55:25.507Z,505
2018-07-11T09:56:24.987Z,505
2018-07-11T09:57:25.502Z,500
2018-07-11T09:58:24.983Z,495
2018-07-11T09:59:25.244Z,485
2018-07-11T10:00:24.987Z,480
2018-07-11T10:01:25.239Z,475
2018-07-11T10:02:25.489Z,465
2018-07-11T10:03:25.233Z,460
2018-07-11T10:04:25.486Z,460
2018-07-11T10:05:25.452Z,455
2018-07-11T10:06:25.230Z,455
2018-07-11T10:07:25.482Z,450
2018-07-11T10:08:25.221Z,450
2018-07-11T10:09:25.472Z,450
2018-07-11T10:10:25.217Z,440
2018-07-11T10:11:25.217Z,435
2018-07-11T10:12:25.562Z,430
2018-07-11T10:13:25.471Z,425
2018-07-11T10:14:25.459Z,420
2018-07-11T10:15:25.515Z,420
2018-07-11T10:16:25.204Z,420
2018-07-11T10:17:25.481Z,415
2018-07-11T10:18:25.473Z,410
2018-07-11T10:19:25.452Z,400
2018-07-11T10:20:25.458Z,385
2018-07-11T10:21:24.935Z,375
2018-07-11T10:22:25.456Z,370
2018-07-11T10:23:24.934Z,370
2018-07-11T10:24:25.460Z,370
2018-07-11T10:25:25.442Z,370
2018-07-11T10:26:25.442Z,370
2018-07-11T10:27:25.435Z,365
2018-07-11T10:28:25.440Z,370
2018-07-11T10:29:25.189Z,370
2018-07-11T10:30:25.176Z,365
2018-07-11T10:31:25.180Z,365
2018-07-11T10:32:24.920Z,360
2018-07-11T10:33:25.174Z,360
2018-07-11T10:34:24.922Z,365
2018-07-11T10:35:25.434Z,360
2018-07-11T10:36:25.470Z,365
2018-07-11T10:37:25.158Z,360
2018-07-11T10:38:25.160Z,350
2018-07-11T10:39:25.443Z,345
2018-07-11T10:40:25.148Z,335
2018-07-11T10:41:24.945Z,330
2018-07-11T10:42:25.159Z,320
2018-07-11T10:43:25.148Z,310
2018-07-11T10:44:24.885Z,305
2018-07-11T10:45:24.884Z,295
2018-07-11T10:46:25.140Z,290
2018-07-11T10:47:25.129Z,285
2018-07-11T10:48:25.135Z,285
2018-07-11T10:49:25.412Z,285
2018-07-11T10:50:25.429Z,285
2018-07-11T10:51:25.129Z,290
2018-07-11T10:52:25.383Z,290
2018-07-11T10:53:25.122Z,290
2018-07-11T10:54:24.883Z,295
2018-07-11T10:55:25.111Z,305
2018-07-11T10:56:25.377Z,315
2018-07-11T10:57:25.112Z,335
2018-07-11T10:58:25.109Z,350
2018-07-11T10:59:25.106Z,365
2018-07-11T11:01:07.871Z,385
2018-07-11T11:01:25.930Z,390
2018-07-11T11:02:25.351Z,405
2018-07-11T11:03:25.348Z,415
2018-07-11T11:04:25.089Z,420
2018-07-11T11:05:25.338Z,425
2018-07-11T11:06:24.825Z,425
2018-07-11T11:07:25.071Z,435
2018-07-11T11:08:25.342Z,435
2018-07-11T11:09:25.085Z,440
2018-07-11T11:10:25.334Z,450
2018-07-11T11:11:25.324Z,455
2018-07-11T11:12:25.065Z,465
2018-07-11T11:13:25.058Z,470
2018-07-11T11:14:25.358Z,475
2018-07-11T11:15:25.311Z,480
2018-07-11T11:16:25.313Z,480
2018-07-11T11:17:24.797Z,480
2018-07-11T11:18:25.311Z,470
2018-07-11T11:19:25.312Z,465
2018-07-11T11:20:25.304Z,460
2018-07-11T11:21:25.300Z,455
2018-07-11T11:22:24.781Z,455
2018-07-11T11:23:25.289Z,460
2018-07-11T11:24:25.028Z,450
2018-07-11T11:25:24.775Z,450
2018-07-11T11:26:25.024Z,445
2018-07-11T11:27:24.763Z,440
2018-07-11T11:28:24.772Z,435
2018-07-11T11:29:25.021Z,440
2018-07-11T11:30:25.019Z,445
2018-07-11T11:31:25.018Z,455
2018-07-11T11:32:24.509Z,465
2018-07-11T11:33:25.280Z,465
2018-07-11T11:34:25.014Z,470
2018-07-11T11:35:25.261Z,460
2018-07-11T11:36:24.752Z,460
2018-07-11T11:37:25.008Z,450
2018-07-11T11:38:25.256Z,445
2018-07-11T11:39:25.249Z,430
2018-07-11T11:40:24.740Z,420
2018-07-11T11:41:25.273Z,390
2018-07-11T11:42:27.530Z,360
2018-07-11T11:43:24.991Z,345
2018-07-11T11:44:25.238Z,315
2018-07-11T11:45:24.990Z,305
2018-07-11T11:46:24.982Z,295
2018-07-11T11:47:24.975Z,295
2018-07-11T11:48:25.234Z,300
2018-07-11T11:49:25.233Z,305
2018-07-11T11:50:25.233Z,315
2018-07-11T11:51:24.975Z,320
2018-07-11T11:52:24.968Z,330
2018-07-11T11:53:24.973Z,340
2018-07-11T11:54:24.710Z,345
2018-07-11T11:55:25.221Z,345
2018-07-11T11:56:24.958Z,350
2018-07-11T11:57:24.951Z,355
2018-07-11T11:58:24.982Z,360
2018-07-11T11:59:24.955Z,360
2018-07-11T12:00:24.952Z,365
2018-07-11T12:01:25.196Z,370
2018-07-11T12:02:24.685Z,380
2018-07-11T12:03:24.942Z,390
2018-07-11T12:04:25.206Z,400
2018-07-11T12:05:24.949Z,405
2018-07-11T12:06:25.187Z,405
2018-07-11T12:07:25.135Z,415
2018-07-11T12:08:25.178Z,420
2018-07-11T12:09:25.200Z,425
2018-07-11T12:10:25.178Z,435
2018-07-11T12:11:24.913Z,445
2018-07-11T12:12:24.916Z,445
2018-07-11T12:13:25.167Z,440
2018-07-11T12:14:24.903Z,440
2018-07-11T12:15:24.908Z,445
2018-07-11T12:16:25.164Z,440
2018-07-11T12:17:25.162Z,435
2018-07-11T12:18:24.902Z,440
2018-07-11T12:19:24.897Z,445
2018-07-11T12:20:25.148Z,450
2018-07-11T12:21:25.161Z,460
2018-07-11T12:22:24.892Z,455
2018-07-11T12:23:24.882Z,455
2018-07-11T12:24:25.155Z,460
2018-07-11T12:25:25.142Z,460
2018-07-11T12:26:25.137Z,460
2018-07-11T12:27:25.128Z,470
2018-07-11T12:28:24.612Z,475
2018-07-11T12:29:25.126Z,470
2018-07-11T12:30:25.131Z,465
2018-07-11T12:31:25.133Z,460
2018-07-11T12:32:25.120Z,460
2018-07-11T12:33:24.922Z,455
2018-07-11T12:34:24.856Z,450
2018-07-11T12:35:25.123Z,455
2018-07-11T12:36:24.869Z,450
2018-07-11T12:37:24.865Z,450
2018-07-11T12:38:24.853Z,455
2018-07-11T12:39:24.845Z,460
2018-07-11T12:40:24.330Z,460
2018-07-11T12:41:25.104Z,455
2018-07-11T12:42:25.113Z,455
2018-07-11T12:43:24.347Z,455
2018-07-11T12:44:24.837Z,460
2018-07-11T12:45:25.101Z,460
2018-07-11T12:46:24.834Z,460
2018-07-11T12:47:25.081Z,465
2018-07-11T12:48:24.323Z,465
2018-07-11T12:49:25.089Z,475
2018-07-11T12:50:25.084Z,475
2018-07-11T12:51:25.092Z,480
2018-07-11T12:52:25.088Z,490
2018-07-11T12:53:24.569Z,495
2018-07-11T12:54:25.080Z,505
2018-07-11T12:55:25.074Z,515
2018-07-11T12:56:25.071Z,520
2018-07-11T12:57:24.048Z,525
2018-07-11T12:58:24.886Z,530
2018-07-11T12:59:24.808Z,535
2018-07-11T13:00:24.549Z,540
2018-07-11T13:01:24.561Z,545
2018-07-11T13:02:25.073Z,545
2018-07-11T13:03:24.548Z,550
2018-07-11T13:04:25.059Z,555
2018-07-11T13:05:24.550Z,555
2018-07-11T13:06:24.547Z,550
2018-07-11T13:07:24.289Z,545
2018-07-11T13:08:24.833Z,525
2018-07-11T13:09:24.810Z,510
2018-07-11T13:10:25.071Z,505
2018-07-11T13:11:25.062Z,505
2018-07-11T13:12:25.058Z,510
2018-07-11T13:13:24.284Z,515
2018-07-11T13:14:25.056Z,515
2018-07-11T13:15:24.802Z,515
2018-07-11T13:16:25.319Z,510
2018-07-11T13:17:25.065Z,505
2018-07-11T13:18:25.069Z,495
2018-07-11T13:19:24.546Z,485
2018-07-11T13:20:24.791Z,470
2018-07-11T13:21:24.802Z,460
2018-07-11T13:22:25.052Z,450
2018-07-11T13:23:25.050Z,450
2018-07-11T13:24:24.795Z,455
2018-07-11T13:25:25.066Z,450
2018-07-11T13:26:24.801Z,455
2018-07-11T13:27:25.060Z,460
2018-07-11T13:28:24.795Z,465
2018-07-11T13:29:24.800Z,475
2018-07-11T13:30:25.059Z,485
2018-07-11T13:31:24.284Z,500
2018-07-11T13:32:24.804Z,510
2018-07-11T13:33:24.798Z,515
2018-07-11T13:34:24.535Z,520
2018-07-11T13:35:25.040Z,530
2018-07-11T13:36:25.042Z,535
2018-07-11T13:37:25.047Z,545
2018-07-11T13:38:25.360Z,550
2018-07-11T13:39:25.047Z,560
2018-07-11T13:40:24.779Z,560
2018-07-11T13:41:25.054Z,565
2018-07-11T13:42:24.781Z,570
2018-07-11T13:43:24.777Z,570
2018-07-11T13:44:25.051Z,575
2018-07-11T13:45:24.527Z,575
2018-07-11T13:46:25.465Z,575
2018-07-11T13:47:24.537Z,570
2018-07-11T13:48:24.521Z,545
2018-07-11T13:49:24.778Z,520
2018-07-11T13:50:24.779Z,500
2018-07-11T13:51:24.781Z,495
2018-07-11T13:52:25.041Z,490
2018-07-11T13:53:24.782Z,515
2018-07-11T13:54:25.029Z,540
2018-07-11T13:55:25.215Z,555
2018-07-11T13:56:24.774Z,555
2018-07-11T13:57:24.775Z,555
2018-07-11T13:58:25.026Z,550
2018-07-11T13:59:25.050Z,550
2018-07-11T14:00:24.775Z,555
2018-07-11T14:01:24.771Z,550
2018-07-11T14:02:24.770Z,555
2018-07-11T14:03:25.027Z,565
2018-07-11T14:04:25.052Z,570